Terminal Aerodrome Forecast
Issued by NWS

Home | Current Version | Previous Version | Text Only | Print | Product List | Glossary On
Versions: 1 2 3 4 5 6 7 8 9 10 11 12 13 14 15 16 17 18 19 20 21 22 23 24 25
000
FTUS45 KREV 230500
TAFCXP
TAF
KCXP 230534Z 2306/2406 34010KT P6SM BKN200
     FM230900 VRB03KT P6SM SCT200
     FM232100 07007KT P6SM SCT200
     FM240100 VRB03KT P6SM BKN200=

USA.gov is the U.S. government's official web portal to all federal, state and local government web resources and services.